Stena Atlantica — ZCPR7 — position and weather

sailwx.info

Track history (hours):
 
Tides and Currents Weather Stations Pressure Air Temp Water Temp Dewpoint Dewpoint Depression Visibility Wind Speed Wind Dir Waves Ship Positions

Stena Atlantica

Last reported at 2014-Dec-22 02:33 UTC. Time now 2014-Dec-22 03:32 UTC.
Position N 54°24' E 018°43'.

Length 245 m; draft 14 m.

Type: Tanker. MMSI: 319161000.

Date/timePositionNaut miles runAvg speedWind from/ knotsBaromVisibWave heightAir tempDewpointWater temp
2014-Dec-22 02:33N 54°24' E 018°43'0 0.0
2014-Dec-22 01:33N 54°24' E 018°43'0 0.0
2014-Dec-22 00:33N 54°24' E 018°43'0 0.0
2014-Dec-21 23:33N 54°24' E 018°43'0 0.0
2014-Dec-21 22:33N 54°24' E 018°43'0 0.0
2014-Dec-21 21:33N 54°24' E 018°43'0 0.0
2014-Dec-21 20:33N 54°24' E 018°43'0 0.0
2014-Dec-21 19:33N 54°24' E 018°43'0 0.0
2014-Dec-21 18:33N 54°24' E 018°43'0 0.0
2014-Dec-21 17:33N 54°24' E 018°43'0 0.0
2014-Dec-21 16:33N 54°24' E 018°43'0 0.0
2014-Dec-21 15:33N 54°24' E 018°43'0 0.0
2014-Dec-21 14:33N 54°24' E 018°43'0 0.0
2014-Dec-21 13:33N 54°24' E 018°43'0 0.0
2014-Dec-21 12:33N 54°24' E 018°43'0 0.0
2014-Dec-21 11:33N 54°24' E 018°43'4 3.8
2014-Dec-21 10:33N 54°25' E 018°50'5 5.3
2014-Dec-21 09:33N 54°28' E 018°57'7 7.0
2014-Dec-21 08:33N 54°34' E 019°02'1010.2
2014-Dec-21 07:33N 54°45' E 019°05'1010.0
2014-Dec-21 06:34N 54°54' E 019°08'1212.0
2014-Dec-21 05:33N 55°06' E 019°13'32311.0
2014-Dec-20 00:10N 59°45' E 024°14'711.8
2014-Dec-19 23:33N 59°47' E 024°28'5811.6
2014-Dec-19 18:33N 59°59' E 026°21'1111.4
2014-Dec-19 17:33N 60°01' E 026°43'1511.2
2014-Dec-19 16:15N 60°02' E 027°12'  
2014-Dec-16 21:28N 60°09' E 027°41'1512.7
2014-Dec-16 20:19N 60°01' E 027°16'912.1
2014-Dec-16 19:33N 59°58' E 026°58'1212.4
2014-Dec-16 18:33N 59°59' E 026°33'1312.7
2014-Dec-16 17:32N 59°55' E 026°09'1912.7
2014-Dec-16 16:04N 59°51' E 025°32'1912.7
2014-Dec-16 14:32N 59°46' E 024°55'1312.8
2014-Dec-16 13:33N 59°44' E 024°30'1312.9
2014-Dec-16 12:33N 59°41' E 024°05'1313.0
2014-Dec-16 11:33N 59°37' E 023°41'1312.7
2014-Dec-16 10:33N 59°32' E 023°17'35112.5
2014-Dec-15 06:33N 55°32' E 015°20'1312.9
2014-Dec-15 05:33N 55°25' E 015°02'1110.9
2014-Dec-15 04:33N 55°19' E 014°45'1313.3
2014-Dec-15 03:34N 55°11' E 014°27'1413.6
2014-Dec-15 02:33N 55°02' E 014°09'1312.9
2014-Dec-15 01:33N 54°57' E 013°48'1313.3
2014-Dec-15 00:33N 54°53' E 013°26'2713.5
2014-Dec-14 22:33N 54°44' E 012°42'1413.3
2014-Dec-14 21:31N 54°36' E 012°22'1511.8
2014-Dec-14 20:15N 54°25' E 012°05'912.6
2014-Dec-14 19:32N 54°25' E 011°50'133 9.5
2014-Dec-14 05:31N 56°38' E 011°44'1110.9
2014-Dec-14 04:33N 56°48' E 011°50'1312.3
2014-Dec-14 03:32N 56°60' E 011°42'1212.1
2014-Dec-14 02:33N 57°11' E 011°35'1312.6
2014-Dec-14 01:33N 57°23' E 011°27'1212.4
2014-Dec-14 00:33N 57°33' E 011°13'1313.0
2014-Dec-13 23:33N 57°41' E 010°54'8 7.5
2014-Dec-13 22:33N 57°48' E 010°49'1111.5
2014-Dec-13 21:33N 57°58' E 010°58'1211.5
2014-Dec-13 20:33N 58°09' E 011°07'1110.8
2014-Dec-13 19:33N 58°18' E 011°18'5 4.5
2014-Dec-13 18:32N 58°21' E 011°24'0 0.0
2014-Dec-13 17:32N 58°21' E 011°24'0 0.0
2014-Dec-13 16:29N 58°21' E 011°24'0 0.0
2014-Dec-13 15:32N 58°21' E 011°24'0 0.0
2014-Dec-13 14:32N 58°21' E 011°24'0 0.0
2014-Dec-13 13:32N 58°21' E 011°24'0 0.0
2014-Dec-13 12:32N 58°21' E 011°24'0 0.0
2014-Dec-13 11:32N 58°21' E 011°24'0 0.0
2014-Dec-13 10:29N 58°21' E 011°24'0 0.0
2014-Dec-13 09:32N 58°21' E 011°24'0 0.0
2014-Dec-13 08:32N 58°21' E 011°24'0 0.0
2014-Dec-13 07:32N 58°21' E 011°24'0 0.0
2014-Dec-13 06:32N 58°21' E 011°24'0 0.0
2014-Dec-13 05:26N 58°21' E 011°24'0 0.0
2014-Dec-13 04:32N 58°21' E 011°24'0 0.0
2014-Dec-13 03:32N 58°21' E 011°24'0 0.0
2014-Dec-13 02:32N 58°21' E 011°24'0 0.0
2014-Dec-13 01:32N 58°21' E 011°24'0 0.0
2014-Dec-13 00:32N 58°21' E 011°24'0 0.0
2014-Dec-12 23:32N 58°21' E 011°24'0 0.0
2014-Dec-12 22:32N 58°21' E 011°24'0 0.0
2014-Dec-12 21:32N 58°21' E 011°24'0 0.0
2014-Dec-12 20:29N 58°21' E 011°24'0 0.0
2014-Dec-12 19:32N 58°21' E 011°24'0 0.0
2014-Dec-12 18:32N 58°21' E 011°24'0 0.0
2014-Dec-12 17:32N 58°21' E 011°24'0 0.0
2014-Dec-12 16:29N 58°21' E 011°24'0 0.0
2014-Dec-12 15:32N 58°21' E 011°24'0 0.0
2014-Dec-12 14:32N 58°21' E 011°24'0 0.4
2014-Dec-12 13:33N 58°21' E 011°24'5 5.4
2014-Dec-12 12:33N 58°17' E 011°17'8 8.1
2014-Dec-12 11:33N 58°10' E 011°07'7 6.8
2014-Dec-12 10:33N 58°04' E 011°01'1 1.2
2014-Dec-12 09:33N 58°04' E 010°59'3 2.9
2014-Dec-12 08:33N 58°07' E 011°01'5 5.5
2014-Dec-12 07:33N 58°11' E 011°07'2 2.1
2014-Dec-12 06:33N 58°09' E 011°04'2 2.2
2014-Dec-12 05:33N 58°08' E 011°01'2 2.3
2014-Dec-12 04:33N 58°06' E 010°59'2 2.3
2014-Dec-12 03:33N 58°04' E 010°56'1 1.4
2014-Dec-12 02:33N 58°03' E 010°55'  
Track history (hours):
 
Tides and Currents Weather Stations Pressure Air Temp Water Temp Dewpoint Dewpoint Depression Visibility Wind Speed Wind Dir Waves Ship Positions

Stena Atlantica

Last reported at 2014-Dec-22 02:33 UTC. Time now 2014-Dec-22 03:32 UTC.
Position N 54°24' E 018°43'.

Length 245 m; draft 14 m.

Type: Tanker. MMSI: 319161000.

Date/timePositionNaut miles runAvg speedWind from/ knotsBaromVisibWave heightAir tempDewpointWater temp
2014-Dec-22 02:33N 54°24' E 018°43'0 0.0
2014-Dec-22 01:33N 54°24' E 018°43'0 0.0
2014-Dec-22 00:33N 54°24' E 018°43'0 0.0
2014-Dec-21 23:33N 54°24' E 018°43'0 0.0
2014-Dec-21 22:33N 54°24' E 018°43'0 0.0
2014-Dec-21 21:33N 54°24' E 018°43'0 0.0
2014-Dec-21 20:33N 54°24' E 018°43'0 0.0
2014-Dec-21 19:33N 54°24' E 018°43'0 0.0
2014-Dec-21 18:33N 54°24' E 018°43'0 0.0
2014-Dec-21 17:33N 54°24' E 018°43'0 0.0
2014-Dec-21 16:33N 54°24' E 018°43'0 0.0
2014-Dec-21 15:33N 54°24' E 018°43'0 0.0
2014-Dec-21 14:33N 54°24' E 018°43'0 0.0
2014-Dec-21 13:33N 54°24' E 018°43'0 0.0
2014-Dec-21 12:33N 54°24' E 018°43'0 0.0
2014-Dec-21 11:33N 54°24' E 018°43'4 3.8
2014-Dec-21 10:33N 54°25' E 018°50'5 5.3
2014-Dec-21 09:33N 54°28' E 018°57'7 7.0
2014-Dec-21 08:33N 54°34' E 019°02'1010.2
2014-Dec-21 07:33N 54°45' E 019°05'1010.0
2014-Dec-21 06:34N 54°54' E 019°08'1212.0
2014-Dec-21 05:33N 55°06' E 019°13'32311.0
2014-Dec-20 00:10N 59°45' E 024°14'711.8
2014-Dec-19 23:33N 59°47' E 024°28'5811.6
2014-Dec-19 18:33N 59°59' E 026°21'1111.4
2014-Dec-19 17:33N 60°01' E 026°43'1511.2
2014-Dec-19 16:15N 60°02' E 027°12'  
2014-Dec-16 21:28N 60°09' E 027°41'1512.7
2014-Dec-16 20:19N 60°01' E 027°16'912.1
2014-Dec-16 19:33N 59°58' E 026°58'1212.4
2014-Dec-16 18:33N 59°59' E 026°33'1312.7
2014-Dec-16 17:32N 59°55' E 026°09'1912.7
2014-Dec-16 16:04N 59°51' E 025°32'1912.7
2014-Dec-16 14:32N 59°46' E 024°55'1312.8
2014-Dec-16 13:33N 59°44' E 024°30'1312.9
2014-Dec-16 12:33N 59°41' E 024°05'1313.0
2014-Dec-16 11:33N 59°37' E 023°41'1312.7
2014-Dec-16 10:33N 59°32' E 023°17'35112.5
2014-Dec-15 06:33N 55°32' E 015°20'1312.9
2014-Dec-15 05:33N 55°25' E 015°02'1110.9
2014-Dec-15 04:33N 55°19' E 014°45'1313.3
2014-Dec-15 03:34N 55°11' E 014°27'1413.6
2014-Dec-15 02:33N 55°02' E 014°09'1312.9
2014-Dec-15 01:33N 54°57' E 013°48'1313.3
2014-Dec-15 00:33N 54°53' E 013°26'2713.5
2014-Dec-14 22:33N 54°44' E 012°42'1413.3
2014-Dec-14 21:31N 54°36' E 012°22'1511.8
2014-Dec-14 20:15N 54°25' E 012°05'912.6
2014-Dec-14 19:32N 54°25' E 011°50'133 9.5
2014-Dec-14 05:31N 56°38' E 011°44'1110.9
2014-Dec-14 04:33N 56°48' E 011°50'1312.3
2014-Dec-14 03:32N 56°60' E 011°42'1212.1
2014-Dec-14 02:33N 57°11' E 011°35'1312.6
2014-Dec-14 01:33N 57°23' E 011°27'1212.4
2014-Dec-14 00:33N 57°33' E 011°13'1313.0
2014-Dec-13 23:33N 57°41' E 010°54'8 7.5
2014-Dec-13 22:33N 57°48' E 010°49'1111.5
2014-Dec-13 21:33N 57°58' E 010°58'1211.5
2014-Dec-13 20:33N 58°09' E 011°07'1110.8
2014-Dec-13 19:33N 58°18' E 011°18'5 4.5
2014-Dec-13 18:32N 58°21' E 011°24'0 0.0
2014-Dec-13 17:32N 58°21' E 011°24'0 0.0
2014-Dec-13 16:29N 58°21' E 011°24'0 0.0
2014-Dec-13 15:32N 58°21' E 011°24'0 0.0
2014-Dec-13 14:32N 58°21' E 011°24'0 0.0
2014-Dec-13 13:32N 58°21' E 011°24'0 0.0
2014-Dec-13 12:32N 58°21' E 011°24'0 0.0
2014-Dec-13 11:32N 58°21' E 011°24'0 0.0
2014-Dec-13 10:29N 58°21' E 011°24'0 0.0
2014-Dec-13 09:32N 58°21' E 011°24'0 0.0
2014-Dec-13 08:32N 58°21' E 011°24'0 0.0
2014-Dec-13 07:32N 58°21' E 011°24'0 0.0
2014-Dec-13 06:32N 58°21' E 011°24'0 0.0
2014-Dec-13 05:26N 58°21' E 011°24'0 0.0
2014-Dec-13 04:32N 58°21' E 011°24'0 0.0
2014-Dec-13 03:32N 58°21' E 011°24'0 0.0
2014-Dec-13 02:32N 58°21' E 011°24'0 0.0
2014-Dec-13 01:32N 58°21' E 011°24'0 0.0
2014-Dec-13 00:32N 58°21' E 011°24'0 0.0
2014-Dec-12 23:32N 58°21' E 011°24'0 0.0
2014-Dec-12 22:32N 58°21' E 011°24'0 0.0
2014-Dec-12 21:32N 58°21' E 011°24'0 0.0
2014-Dec-12 20:29N 58°21' E 011°24'0 0.0
2014-Dec-12 19:32N 58°21' E 011°24'0 0.0
2014-Dec-12 18:32N 58°21' E 011°24'0 0.0
2014-Dec-12 17:32N 58°21' E 011°24'0 0.0
2014-Dec-12 16:29N 58°21' E 011°24'0 0.0
2014-Dec-12 15:32N 58°21' E 011°24'0 0.0
2014-Dec-12 14:32N 58°21' E 011°24'0 0.4
2014-Dec-12 13:33N 58°21' E 011°24'5 5.4
2014-Dec-12 12:33N 58°17' E 011°17'8 8.1
2014-Dec-12 11:33N 58°10' E 011°07'7 6.8
2014-Dec-12 10:33N 58°04' E 011°01'1 1.2
2014-Dec-12 09:33N 58°04' E 010°59'3 2.9
2014-Dec-12 08:33N 58°07' E 011°01'5 5.5
2014-Dec-12 07:33N 58°11' E 011°07'2 2.1
2014-Dec-12 06:33N 58°09' E 011°04'2 2.2
2014-Dec-12 05:33N 58°08' E 011°01'2 2.3
2014-Dec-12 04:33N 58°06' E 010°59'2 2.3
2014-Dec-12 03:33N 58°04' E 010°56'1 1.4
2014-Dec-12 02:33N 58°03' E 010°55'  

Dump ship's entire track history